Time;durP1;ratioP1;P1;durP2;ratioP2;P2;SDS_P1;SDS_P2;PMS_P1;PMS_P2;Temp;Humidity;BMP_temperature;BMP_pressure;BME280_temperature;BME280_humidity;BME280_pressure;Samples;Min_cycle;Max_cycle;Signal;HPM_P1;HPM_P2
2022/06/30 00:01:42;;;;;;;14.45;10.70;;;21.90;99.90;;;22.37;69.46;100988.56;5113048;28;20451;-69
2022/06/30 00:04:10;;;;;;;14.70;11.02;;;21.80;99.90;;;22.47;70.62;100973.66;5112927;28;20043;-68
2022/06/30 00:06:39;;;;;;;12.98;10.73;;;21.80;99.90;;;22.41;70.53;100969.44;5112888;28;20075;-68
2022/06/30 00:09:08;;;;;;;14.13;10.50;;;21.80;99.90;;;22.22;70.05;100968.63;5113483;28;20110;-70
2022/06/30 00:11:38;;;;;;;13.15;10.15;;;21.70;99.90;;;22.17;71.00;100965.31;5094915;28;20500;-68
2022/06/30 00:14:06;;;;;;;15.80;11.40;;;21.60;99.90;;;21.95;71.07;100963.78;5113349;28;20438;-68
2022/06/30 00:16:35;;;;;;;13.65;11.18;;;21.40;99.90;;;21.98;71.24;100966.28;5094782;28;20557;-68
2022/06/30 00:19:03;;;;;;;15.20;11.60;;;21.40;99.90;;;22.05;70.44;100948.88;5112801;28;20505;-68
2022/06/30 00:21:32;;;;;;;16.83;12.90;;;21.50;99.90;;;21.97;70.25;100949.25;5094552;28;20047;-68
2022/06/30 00:24:00;;;;;;;19.02;12.85;;;21.40;99.90;;;21.78;70.87;100960.97;5112577;28;20088;-68
2022/06/30 00:26:28;;;;;;;17.20;12.93;;;21.30;99.90;;;21.95;70.82;100953.84;5112817;28;20055;-68
2022/06/30 00:28:58;;;;;;;16.50;12.45;;;21.40;99.90;;;22.10;70.31;100941.44;5112831;28;20052;-68
2022/06/30 00:31:27;;;;;;;20.20;13.77;;;21.50;99.90;;;22.11;69.91;100949.44;5112501;28;20044;-68
2022/06/30 00:33:55;;;;;;;19.73;14.48;;;21.60;99.90;;;22.19;69.79;100947.22;5094367;28;20039;-68
2022/06/30 00:36:23;;;;;;;16.42;14.27;;;21.70;99.90;;;22.07;70.23;100947.84;5112690;28;20075;-69
2022/06/30 00:38:52;;;;;;;19.48;14.55;;;21.60;99.90;;;22.18;69.74;100950.00;5112438;28;20126;-68
2022/06/30 00:41:20;;;;;;;20.75;14.02;;;21.70;99.90;;;22.30;69.72;100962.84;5112240;28;20453;-68
2022/06/30 00:43:49;;;;;;;16.67;12.60;;;21.80;99.90;;;22.11;69.48;100933.28;5112174;28;20202;-69
2022/06/30 00:46:19;;;;;;;19.30;12.82;;;21.80;99.90;;;21.94;70.83;100960.19;5112100;28;20516;-69
2022/06/30 00:48:47;;;;;;;14.13;11.85;;;21.60;99.90;;;21.83;72.27;100986.78;5112136;28;20051;-68
2022/06/30 00:51:18;;;;;;;17.98;12.98;;;21.40;99.90;;;21.97;72.58;101000.44;5112308;28;20040;-68
2022/06/30 00:53:48;;;;;;;15.02;12.45;;;21.40;99.90;;;21.78;73.33;101021.09;5116080;28;20044;-68
2022/06/30 00:56:19;;;;;;;16.92;12.77;;;21.30;99.90;;;21.49;73.91;100954.31;5116285;28;20113;-68
2022/06/30 00:58:48;;;;;;;;;;;21.20;99.90;;;21.92;73.29;100989.03;5116827;28;20397;-69
2022/06/30 01:01:20;;;;;;;20.92;12.52;;;21.40;99.90;;;21.62;74.03;100951.91;5116259;28;19920;-68
2022/06/30 01:03:48;;;;;;;17.67;12.05;;;21.40;99.90;;;21.94;74.34;100995.22;5116051;28;20059;-68
2022/06/30 01:06:18;;;;;;;19.05;12.95;;;21.40;99.90;;;21.77;74.73;100999.63;5116061;28;20190;-69
2022/06/30 01:08:47;;;;;;;17.93;12.87;;;21.30;99.90;;;21.58;75.54;100997.81;5115863;28;20112;-68
2022/06/30 01:14:10;;;;;;;13.45;10.02;;;21.00;99.90;;;21.45;75.12;100956.28;5039234;28;20047;-69
2022/06/30 01:16:40;;;;;;;17.08;11.88;;;21.20;99.90;;;21.65;74.47;100995.72;5097744;28;20489;-68
2022/06/30 01:19:09;;;;;;;13.77;10.27;;;21.20;99.90;;;21.52;74.72;100991.88;5115949;28;20439;-68
2022/06/30 01:21:39;;;;;;;17.42;10.02;;;21.10;99.90;;;21.59;75.13;100955.63;5115827;28;20036;-68
2022/06/30 01:24:07;;;;;;;11.00;8.43;;;21.10;99.90;;;21.83;74.02;100984.09;5097648;28;20195;-70
2022/06/30 01:26:36;;;;;;;16.05;8.75;;;21.30;99.90;;;21.77;72.53;101000.53;5094092;28;20545;-68
2022/06/30 01:29:07;;;;;;;12.07;8.65;;;21.30;99.90;;;21.53;74.26;100969.38;5095687;28;20063;-68
2022/06/30 01:31:36;;;;;;;12.63;8.77;;;21.10;99.90;;;21.75;73.55;100961.13;5095708;28;20101;-68
2022/06/30 01:34:04;;;;;;;11.45;8.95;;;21.30;99.90;;;21.85;72.28;100984.91;5095583;28;20097;-68
2022/06/30 01:36:32;;;;;;;18.02;9.13;;;21.40;99.90;;;20.96;72.21;100880.63;5095622;28;20071;-68
2022/06/30 01:39:02;;;;;;;13.63;8.02;;;21.20;99.90;;;21.36;73.21;100988.16;5095252;28;20519;-68
2022/06/30 01:41:30;;;;;;;13.48;9.73;;;20.90;99.90;;;21.47;73.14;100973.22;5095017;28;20048;-68
2022/06/30 01:43:59;;;;;;;12.98;9.20;;;21.00;99.90;;;21.71;71.91;100989.16;5095259;28;20040;-69
2022/06/30 01:46:27;;;;;;;13.73;8.68;;;21.20;99.90;;;21.52;71.59;100986.50;5095287;28;20405;-69
2022/06/30 01:48:55;;;;;;;12.63;8.85;;;21.10;99.90;;;21.43;72.44;100994.97;5094913;28;20097;-68
2022/06/30 01:51:24;;;;;;;10.27;7.68;;;21.00;99.90;;;21.45;72.02;100998.47;5094931;28;20036;-68
2022/06/30 01:53:53;;;;;;;12.63;8.95;;;21.00;99.90;;;21.32;71.94;101000.88;5094918;28;20116;-68
2022/06/30 01:56:22;;;;;;;12.75;8.55;;;20.90;99.90;;;21.33;72.70;100997.22;5094847;28;20044;-68
2022/06/30 01:58:54;;;;;;;11.32;8.57;;;20.80;99.90;;;21.45;72.20;100990.41;5095469;28;20036;-68
2022/06/30 02:01:22;;;;;;;10.98;7.55;;;20.90;99.90;;;21.41;72.02;100986.09;5095013;28;20040;-69
2022/06/30 02:03:51;;;;;;;15.52;8.43;;;20.90;99.90;;;21.42;72.21;100990.56;5093474;28;20047;-69
2022/06/30 02:06:19;;;;;;;13.13;7.82;;;20.90;99.90;;;21.35;72.44;100992.66;5093817;28;20096;-69
2022/06/30 02:08:48;;;;;;;12.00;8.02;;;20.80;99.90;;;21.35;72.36;100983.72;5095037;28;20127;-69
2022/06/30 02:11:16;;;;;;;11.13;7.15;;;20.80;99.90;;;21.47;71.88;100989.38;5094942;28;20043;-69
2022/06/30 02:13:46;;;;;;;13.35;7.25;;;20.90;99.90;;;21.61;70.49;100987.84;5093718;28;20068;-68
2022/06/30 02:16:14;;;;;;;10.17;6.87;;;21.10;99.90;;;21.67;69.86;100995.63;5094468;28;20477;-69
2022/06/30 02:18:42;;;;;;;9.73;6.75;;;21.10;99.90;;;21.65;71.20;100993.03;5095026;28;20500;-68
2022/06/30 02:21:11;;;;;;;14.02;7.40;;;21.10;99.90;;;21.74;69.97;100992.56;5094701;28;20098;-68
2022/06/30 02:23:39;;;;;;;13.70;7.55;;;21.20;99.90;;;21.77;68.16;100996.94;5094467;28;20114;-68
2022/06/30 02:26:07;;;;;;;8.02;6.55;;;21.30;99.90;;;21.70;69.10;100995.50;5103842;28;20154;-68
2022/06/30 02:28:36;;;;;;;8.45;6.90;;;21.20;99.90;;;21.47;69.97;100985.81;5114661;28;20042;-68
2022/06/30 02:31:05;;;;;;;9.45;6.55;;;21.00;99.90;;;21.46;69.94;100978.69;5114604;28;20075;-69
2022/06/30 02:33:34;;;;;;;10.00;6.30;;;20.90;99.90;;;21.44;70.14;100977.91;5114574;28;20039;-68
2022/06/30 02:36:02;;;;;;;9.13;5.78;;;20.90;99.90;;;21.27;70.32;100975.97;5096658;28;20373;-68
2022/06/30 02:38:30;;;;;;;7.80;5.60;;;20.90;99.90;;;21.33;71.05;100982.91;5115079;28;20043;-68
2022/06/30 02:40:59;;;;;;;8.52;5.68;;;20.80;99.90;;;21.19;71.43;100978.19;5114999;28;20058;-68
2022/06/30 02:43:27;;;;;;;9.40;5.47;;;20.70;99.90;;;21.27;71.04;100989.44;5114617;28;20487;-68
2022/06/30 02:45:55;;;;;;;7.55;5.82;;;20.70;99.90;;;21.31;70.57;100984.81;5114978;28;20465;-68
2022/06/30 02:48:25;;;;;;;7.13;5.45;;;20.70;99.90;;;21.28;70.47;100993.00;5096805;28;20078;-68
2022/06/30 02:50:53;;;;;;;7.95;5.93;;;20.70;99.90;;;21.03;71.69;100981.63;5114790;28;20082;-69
2022/06/30 02:53:23;;;;;;;9.63;5.32;;;20.50;99.90;;;21.16;71.76;100980.13;5114421;28;20405;-68
2022/06/30 02:55:51;;;;;;;10.20;5.97;;;20.60;99.90;;;21.11;72.06;100966.00;5114169;28;20112;-68
2022/06/30 02:58:20;;;;;;;8.15;5.55;;;20.50;99.90;;;21.20;71.63;100958.38;5114353;28;20058;-68
2022/06/30 03:00:48;;;;;;;9.20;5.45;;;20.60;99.90;;;21.34;70.73;100963.13;5114200;28;20092;-68
2022/06/30 03:03:16;;;;;;;8.70;5.88;;;20.70;99.90;;;21.28;69.63;100977.75;5114350;28;20126;-68
2022/06/30 03:05:46;;;;;;;10.88;5.63;;;20.80;99.90;;;21.23;69.23;100987.84;5114359;28;20105;-68
2022/06/30 03:08:15;;;;;;;7.68;5.70;;;20.80;99.90;;;21.08;70.56;100966.16;5114679;28;20071;-68
2022/06/30 03:10:43;;;;;;;9.70;6.07;;;20.70;99.90;;;21.04;71.76;100967.25;5113983;28;20142;-68
2022/06/30 03:13:11;;;;;;;10.05;5.22;;;20.50;99.90;;;21.20;71.56;100968.25;5114465;28;20537;-69
2022/06/30 03:15:40;;;;;;;8.18;5.47;;;20.60;99.90;;;21.06;72.03;100954.59;5113378;28;20051;-68
2022/06/30 03:18:08;;;;;;;6.15;5.22;;;20.60;99.90;;;21.20;72.30;100953.00;5114025;28;20393;-68
2022/06/30 03:20:42;;;;;;;9.65;5.35;;;20.70;99.90;;;21.25;72.79;100953.66;5113956;28;20425;-68
2022/06/30 03:23:11;;;;;;;10.40;5.47;;;20.80;99.90;;;21.35;71.82;100948.72;5113937;28;20067;-68
2022/06/30 03:25:40;;;;;;;12.67;5.70;;;20.90;99.90;;;21.10;73.51;100950.84;5113463;28;20093;-69
2022/06/30 03:28:08;;;;;;;10.98;5.80;;;20.60;99.90;;;20.80;75.02;100941.41;5113567;28;20293;-68
2022/06/30 03:30:41;;;;;;;8.50;5.60;;;20.30;99.90;;;20.90;74.76;100942.75;5113866;28;20135;-68
2022/06/30 03:33:10;;;;;;;8.35;5.63;;;20.40;99.90;;;20.98;74.30;100946.81;5113686;28;20048;-68
2022/06/30 03:35:38;;;;;;;8.25;5.45;;;20.40;99.90;;;21.05;73.82;100945.66;5113952;28;20035;-68
2022/06/30 03:38:06;;;;;;;11.13;5.20;;;20.50;99.90;;;20.74;75.27;100949.75;5113538;28;20126;-68
2022/06/30 03:40:36;;;;;;;7.15;5.28;;;20.30;99.90;;;20.66;76.27;100953.69;5113597;28;20333;-68
2022/06/30 03:43:04;;;;;;;7.22;5.15;;;20.20;99.90;;;20.73;76.16;100956.09;5113400;28;20103;-68
2022/06/30 03:45:32;;;;;;;9.75;5.47;;;20.20;99.90;;;20.88;75.86;100950.00;5113713;28;20071;-68
2022/06/30 03:48:02;;;;;;;7.40;5.90;;;20.40;99.90;;;21.03;74.81;100966.38;5113138;28;20090;-68
2022/06/30 03:50:32;;;;;;;12.82;7.45;;;20.50;99.90;;;20.67;75.78;100941.97;5113146;28;20090;-68
2022/06/30 03:53:01;;;;;;;12.85;7.85;;;20.30;99.90;;;20.98;76.27;100949.50;5113427;28;20092;-68
2022/06/30 03:55:29;;;;;;;14.02;9.23;;;20.40;99.90;;;21.09;76.26;100949.06;5112908;28;20046;-68
2022/06/30 03:57:59;;;;;;;15.15;9.35;;;20.60;99.90;;;20.97;77.10;100955.84;5112691;28;20078;-68
2022/06/30 04:00:28;;;;;;;11.57;9.90;;;20.50;99.90;;;21.07;76.37;100983.22;5112785;28;20032;-68
2022/06/30 04:02:56;;;;;;;10.63;9.07;;;20.60;99.90;;;21.05;76.27;101009.34;5112660;28;20067;-67
2022/06/30 04:05:24;;;;;;;12.60;10.25;;;20.60;99.90;;;21.11;76.28;100992.91;5094614;28;20108;-73
2022/06/30 04:07:52;;;;;;;13.30;10.40;;;20.60;99.90;;;20.79;78.55;100988.94;5094642;28;20052;-68
2022/06/30 04:10:21;;;;;;;14.82;9.63;;;20.40;99.90;;;20.80;79.23;100988.00;5113119;28;20031;-69
2022/06/30 04:12:49;;;;;;;12.43;8.98;;;20.30;99.90;;;20.83;78.52;100997.78;5112886;28;20043;-66
2022/06/30 04:15:19;;;;;;;12.73;9.23;;;20.30;99.90;;;20.79;79.20;100998.84;5112555;28;20207;-66
2022/06/30 04:17:47;;;;;;;14.93;9.23;;;20.30;99.90;;;20.66;78.98;101001.19;5094273;28;20040;-66
2022/06/30 04:20:18;;;;;;;11.93;8.32;;;20.20;99.90;;;20.63;79.35;101010.25;5112342;28;20089;-66
2022/06/30 04:22:49;;;;;;;12.10;7.63;;;20.20;99.90;;;20.57;79.77;101010.53;5094157;28;20074;-65
2022/06/30 04:25:17;;;;;;;;;;;20.10;99.90;;;20.41;79.95;100984.38;5112714;28;20135;-65
2022/06/30 04:27:48;;;;;;;11.02;6.60;;;20.00;99.90;;;20.67;79.33;101025.31;5111669;28;20007;-65
2022/06/30 04:32:37;;;;;;;16.92;7.30;;;20.10;99.90;;;20.77;78.62;101038.38;5112377;28;20100;-65
2022/06/30 04:33:08;;;;;;;12.13;6.45;;;20.30;99.90;;;20.85;78.53;101018.25;5112261;28;20216;-65
2022/06/30 04:35:37;;;;;;;12.07;6.32;;;20.30;99.90;;;20.68;79.07;101013.63;5094191;28;20392;-65
2022/06/30 04:38:06;;;;;;;13.48;5.95;;;20.20;99.90;;;20.53;80.04;101025.06;5112671;28;20040;-65
2022/06/30 04:43:20;;;;;;;14.15;6.43;;;20.10;99.90;;;20.50;80.25;101025.16;5112255;28;20035;-65
2022/06/30 04:45:50;;;;;;;12.13;5.68;;;20.00;99.90;;;20.54;79.78;101026.78;5112492;28;20044;-65
2022/06/30 04:48:18;;;;;;;13.50;5.97;;;20.00;99.90;;;20.31;80.16;101012.56;5112479;28;20044;-65
2022/06/30 04:50:47;;;;;;;15.25;5.60;;;20.00;99.90;;;20.24;81.06;101033.47;5112149;28;20548;-65
2022/06/30 04:53:16;;;;;;;10.32;4.95;;;19.90;99.90;;;20.26;81.46;101036.06;5112230;28;20036;-66
2022/06/30 04:55:44;;;;;;;10.45;5.45;;;19.80;99.90;;;20.31;80.97;101037.63;5112153;28;20482;-65
2022/06/30 04:58:13;;;;;;;10.77;4.78;;;19.90;99.90;;;20.12;81.67;101043.78;5093988;28;20482;-66
2022/06/30 05:00:41;;;;;;;10.05;4.97;;;19.80;99.90;;;20.19;82.25;101038.13;5112299;28;20095;-65
2022/06/30 05:03:11;;;;;;;15.82;6.00;;;19.80;99.90;;;20.29;82.15;101035.94;5112639;28;20086;-66
2022/06/30 05:05:39;;;;;;;15.23;5.43;;;19.80;99.90;;;20.45;81.91;101045.13;5112454;28;20044;-66
2022/06/30 05:08:07;;;;;;;12.75;5.50;;;19.90;99.90;;;20.41;81.18;101035.44;5112208;28;20093;-65
2022/06/30 05:10:36;;;;;;;10.35;5.38;;;20.00;99.90;;;20.28;81.78;101045.84;5112322;28;20065;-65
2022/06/30 05:13:05;;;;;;;12.05;5.30;;;19.90;99.90;;;20.24;81.77;101049.59;5094208;28;20468;-65
2022/06/30 05:15:34;;;;;;;10.02;4.70;;;19.80;99.90;;;20.29;81.08;101050.25;5094059;28;20413;-66
2022/06/30 05:18:03;;;;;;;13.38;5.00;;;19.80;99.90;;;20.26;81.02;101047.72;5111872;28;20044;-66
2022/06/30 05:20:32;;;;;;;10.43;4.80;;;19.90;99.90;;;20.27;80.47;101065.56;5111888;28;20108;-67
2022/06/30 05:23:02;;;;;;;11.57;5.33;;;19.90;99.90;;;20.29;80.96;101055.63;5111913;28;20554;-66
2022/06/30 05:28:17;;;;;;;11.32;5.00;;;19.70;99.90;;;20.06;81.37;101033.28;5111811;28;20073;-66
2022/06/30 05:30:45;;;;;;;11.43;4.50;;;19.70;99.90;;;20.09;81.70;101034.03;5112371;28;20128;-66
2022/06/30 05:33:19;;;;;;;13.18;4.90;;;19.60;99.90;;;20.19;80.78;101043.50;5112213;28;20040;-66
2022/06/30 05:35:50;;;;;;;11.23;5.18;;;19.70;99.90;;;20.18;80.53;101032.78;5111878;28;20136;-66
2022/06/30 05:38:19;;;;;;;11.35;5.20;;;19.80;99.90;;;20.19;81.00;101024.69;5113315;28;20039;-66
2022/06/30 05:40:48;;;;;;;10.20;5.28;;;19.80;99.90;;;20.43;80.81;101021.00;5115685;28;20063;-66
2022/06/30 05:43:18;;;;;;;11.25;4.82;;;19.90;99.90;;;20.78;79.78;101018.59;5097357;28;20047;-66
2022/06/30 05:45:48;;;;;;;12.88;5.28;;;20.30;99.90;;;20.54;78.88;101024.09;5115607;28;20122;-66
2022/06/30 05:48:16;;;;;;;9.20;4.85;;;20.20;99.90;;;20.80;77.88;101022.97;5115732;28;20126;-66
2022/06/30 05:50:45;;;;;;;10.00;4.57;;;20.40;99.90;;;20.88;76.36;101030.69;5115969;28;20044;-66
2022/06/30 05:53:15;;;;;;;11.23;4.72;;;20.50;99.90;;;20.95;75.83;101029.47;5097635;28;20059;-66
2022/06/30 05:55:43;;;;;;;12.20;4.45;;;20.50;99.90;;;21.11;74.67;101030.59;5115663;28;20051;-67
2022/06/30 05:58:14;;;;;;;11.05;4.90;;;20.70;99.90;;;21.33;73.91;101034.06;5115431;28;20050;-66
2022/06/30 06:00:43;;;;;;;10.18;4.95;;;20.90;99.90;;;21.35;73.53;101024.09;5115621;28;20067;-67
2022/06/30 06:03:11;;;;;;;9.48;5.20;;;21.00;99.90;;;21.33;73.49;101032.22;5115362;28;20042;-67
2022/06/30 06:05:39;;;;;;;11.38;4.55;;;21.00;99.90;;;21.41;72.57;101035.44;5115103;28;20419;-67
2022/06/30 06:08:10;;;;;;;10.75;4.60;;;21.00;99.90;;;21.36;72.79;101040.16;5115209;28;20387;-66
2022/06/30 06:10:40;;;;;;;8.05;4.50;;;21.00;99.90;;;21.16;72.74;101039.31;5115390;28;20082;-66
2022/06/30 06:13:11;;;;;;;7.82;3.90;;;20.80;99.90;;;21.46;70.91;101046.00;5115241;28;20044;-66
2022/06/30 06:15:39;;;;;;;10.48;4.18;;;21.00;99.90;;;21.74;71.08;101045.59;5114936;28;20473;-66
2022/06/30 06:18:08;;;;;;;11.52;3.60;;;21.20;99.90;;;21.78;70.28;101047.16;5096755;28;20134;-66
2022/06/30 06:20:36;;;;;;;10.15;3.67;;;21.30;99.90;;;22.02;69.94;101049.59;5114991;28;20044;-66
2022/06/30 06:23:04;;;;;;;7.53;3.72;;;21.50;99.90;;;21.99;68.91;101049.72;5114873;28;20046;-66
2022/06/30 06:25:33;;;;;;;9.13;4.00;;;21.60;99.90;;;22.24;69.14;101052.13;5114683;28;20048;-66
2022/06/30 06:30:51;;;;;;;9.93;4.53;;;22.00;99.90;;;22.64;67.98;101051.91;5114679;28;20130;-66
2022/06/30 06:33:19;;;;;;;8.02;4.00;;;22.10;99.90;;;22.89;67.33;101051.50;5114547;28;20067;-66
2022/06/30 06:35:47;;;;;;;6.93;3.97;;;22.40;99.90;;;23.00;65.65;101049.09;5096390;28;20069;-66
2022/06/30 06:38:16;;;;;;;7.78;3.50;;;22.50;99.90;;;23.11;64.05;101046.72;5114315;28;20032;-66
2022/06/30 06:40:44;;;;;;;10.13;4.32;;;22.70;99.90;;;22.97;64.60;101057.38;5114394;28;20047;-69
2022/06/30 06:43:14;;;;;;;8.88;3.90;;;22.50;99.90;;;23.15;63.98;101062.66;5096519;28;20485;-66
2022/06/30 06:45:42;;;;;;;5.85;3.40;;;22.70;99.90;;;23.26;63.58;101064.78;5114737;28;20096;-66
2022/06/30 06:48:11;;;;;;;7.97;3.90;;;22.80;99.90;;;23.26;62.66;101056.69;5114256;28;20073;-67
2022/06/30 06:50:39;;;;;;;7.43;3.95;;;22.90;99.90;;;23.30;62.54;101064.56;5113458;28;20437;-69
2022/06/30 06:53:07;;;;;;;7.60;3.70;;;23.00;99.90;;;23.37;62.12;101066.94;5114046;28;20669;-69
2022/06/30 06:55:36;;;;;;;10.00;3.60;;;23.00;99.90;;;23.55;61.86;101069.53;5114043;28;20040;-67
2022/06/30 06:58:05;;;;;;;4.22;3.15;;;23.10;99.90;;;23.69;61.27;101087.69;5114139;28;20126;-64
2022/06/30 07:00:35;;;;;;;7.53;3.58;;;23.20;99.90;;;23.82;60.78;101094.16;5113941;28;20374;-64
2022/06/30 07:03:03;;;;;;;7.80;3.42;;;23.40;99.90;;;23.88;59.69;101094.69;5114011;28;20093;-65
2022/06/30 07:05:32;;;;;;;8.13;3.15;;;23.50;99.90;;;23.83;59.99;101091.34;5113811;28;20381;-64
2022/06/30 07:08:02;;;;;;;7.38;3.70;;;23.40;99.90;;;23.82;60.45;101088.75;5113814;28;20118;-64
2022/06/30 07:10:30;;;;;;;5.60;3.28;;;23.40;99.90;;;23.89;59.68;101093.72;5114108;28;20039;-64
2022/06/30 07:12:59;;;;;;;6.00;3.45;;;23.50;99.90;;;23.90;60.25;101097.31;5113826;28;20405;-65
2022/06/30 07:15:27;;;;;;;7.93;3.33;;;23.50;99.90;;;23.96;59.42;101105.91;5113580;28;20036;-65
2022/06/30 07:17:58;;;;;;;8.33;3.30;;;23.60;99.90;;;23.99;59.71;101097.66;5113901;28;20077;-68
2022/06/30 07:20:27;;;;;;;7.43;3.55;;;23.60;99.90;;;23.99;59.72;101089.53;5113896;28;20044;-66
2022/06/30 07:22:55;;;;;;;5.28;3.20;;;23.60;99.90;;;23.90;58.87;101092.78;5113840;28;20122;-69
2022/06/30 07:25:43;;;;;;;6.20;3.53;;;23.50;99.90;;;23.80;59.81;101096.94;5113775;28;20211;-67
2022/06/30 07:28:12;;;;;;;6.72;3.85;;;23.50;99.90;;;23.58;60.09;101088.25;5113425;28;20050;-67
2022/06/30 07:31:00;;;;;;;9.55;3.50;;;23.30;99.90;;;23.46;60.23;101074.56;5113919;28;20097;-68
2022/06/30 07:33:30;;;;;;;7.07;3.65;;;23.30;99.90;;;23.44;61.51;101093.53;5113601;28;20036;-70
2022/06/30 07:35:59;;;;;;;6.00;3.42;;;23.20;99.90;;;23.50;61.64;101093.19;5113339;28;20043;-68
2022/06/30 07:38:27;;;;;;;9.77;3.92;;;23.10;99.90;;;23.41;61.10;101093.69;5113339;28;20074;-68
2022/06/30 07:40:56;;;;;;;6.72;3.90;;;23.10;99.90;;;23.50;61.55;101103.16;5113051;28;20427;-66
2022/06/30 07:43:24;;;;;;;5.97;3.30;;;23.20;99.90;;;23.33;60.88;101111.25;5113194;28;20146;-67
2022/06/30 07:45:53;;;;;;;6.35;3.65;;;23.00;99.90;;;23.47;60.72;101109.59;5113198;28;20172;-66
2022/06/30 07:48:21;;;;;;;6.60;3.60;;;23.10;99.90;;;23.62;61.98;101114.16;5095059;28;20046;-66
2022/06/30 07:50:51;;;;;;;5.53;3.38;;;23.30;99.90;;;23.57;59.76;101110.84;5113313;28;20074;-66
2022/06/30 07:53:19;;;;;;;5.10;2.97;;;23.30;99.90;;;23.56;59.77;101117.19;5113714;28;20063;-68
2022/06/30 07:55:48;;;;;;;8.93;3.63;;;23.30;99.90;;;23.54;58.81;101119.09;5112969;28;20091;-70
2022/06/30 07:58:16;;;;;;;2.97;2.65;;;23.30;99.90;;;23.55;57.30;101119.97;5113258;28;20460;-70
2022/06/30 08:00:44;;;;;;;5.95;3.35;;;23.30;99.90;;;23.61;58.48;101120.53;5112930;28;20075;-70
2022/06/30 08:03:13;;;;;;;5.30;3.10;;;23.40;99.90;;;23.87;57.03;101124.47;5095243;28;20055;-70
2022/06/30 08:05:42;;;;;;;5.80;2.72;;;23.50;99.90;;;23.84;56.72;101121.97;5113061;28;20078;-69
2022/06/30 08:08:12;;;;;;;6.72;3.05;;;23.60;99.90;;;23.85;56.82;101134.50;5113141;28;20094;-69
2022/06/30 08:10:40;;;;;;;6.25;3.42;;;23.50;99.90;;;23.93;56.59;101125.03;5113281;28;20105;-70
2022/06/30 08:13:09;;;;;;;4.53;2.83;;;23.60;99.90;;;23.99;57.18;101105.75;5112948;28;20040;-69
2022/06/30 08:15:38;;;;;;;5.22;3.13;;;23.80;99.90;;;24.23;56.01;101127.00;5112605;28;20131;-69
2022/06/30 08:18:08;;;;;;;8.90;3.25;;;23.90;99.90;;;24.36;56.25;101128.91;5112928;28;20040;-68
2022/06/30 08:20:37;;;;;;;7.72;3.30;;;24.00;99.90;;;24.47;54.82;101121.06;5112901;28;20040;-70
2022/06/30 08:23:05;;;;;;;6.20;2.90;;;24.10;99.90;;;24.47;55.24;101131.00;5112598;28;20058;-69
2022/06/30 08:25:35;;;;;;;6.50;3.35;;;24.10;99.90;;;24.44;55.16;101142.00;5112512;28;20514;-68
2022/06/30 08:28:05;;;;;;;4.17;3.20;;;24.10;99.90;;;24.61;55.49;101140.06;5113033;28;20147;-68
2022/06/30 08:30:34;;;;;;;6.93;3.22;;;24.30;99.90;;;24.61;55.17;101136.50;5112910;28;20278;-68
2022/06/30 08:33:02;;;;;;;8.50;3.47;;;24.20;99.90;;;24.72;55.53;101128.63;5112820;28;20457;-69
2022/06/30 08:35:31;;;;;;;5.43;3.05;;;24.40;99.90;;;24.82;55.26;101127.16;5112358;28;20035;-68
2022/06/30 08:38:21;;;;;;;4.93;3.17;;;24.50;99.90;;;24.97;54.76;101135.22;5112334;28;20043;-67
2022/06/30 08:43:48;;;;;;;5.70;3.60;;;24.70;99.90;;;25.20;53.90;101139.28;5009913;28;20073;-67
2022/06/30 08:46:19;;;;;;;5.95;3.63;;;24.80;99.90;;;25.24;54.33;101140.81;5071227;28;20556;-68
2022/06/30 08:48:47;;;;;;;5.97;3.08;;;24.90;99.90;;;25.17;54.07;101135.88;5112471;28;20093;-68
2022/06/30 08:51:17;;;;;;;8.48;3.72;;;24.80;99.90;;;25.17;54.68;101136.75;5112397;28;20051;-67
2022/06/30 08:53:53;;;;;;;6.35;3.63;;;24.80;99.90;;;25.31;54.12;101133.19;5112942;28;20050;-68
2022/06/30 08:56:24;;;;;;;8.68;3.53;;;25.00;99.90;;;25.54;54.64;101141.69;5112459;28;20051;-66
2022/06/30 08:58:54;;;;;;;9.77;3.72;;;25.20;99.90;;;25.43;55.11;101146.03;5112469;28;20101;-69
2022/06/30 09:01:23;;;;;;;8.73;3.60;;;25.20;99.90;;;25.45;55.04;101141.41;5112559;28;20043;-67
2022/06/30 09:03:53;;;;;;;6.57;3.45;;;25.20;99.90;;;25.60;54.81;101149.44;5094123;28;20039;-67
2022/06/30 09:06:21;;;;;;;6.50;3.40;;;25.20;99.90;;;25.72;52.78;101150.53;5112743;28;20047;-69
2022/06/30 09:09:05;;;;;;;5.90;3.20;;;25.40;99.90;;;25.79;53.80;101149.16;5112262;28;20036;-69
2022/06/30 09:11:51;;;;;;;7.55;3.38;;;25.50;99.90;;;25.77;54.15;101145.69;5112586;28;20036;-72
2022/06/30 09:14:36;;;;;;;9.00;3.30;;;25.50;99.90;;;25.62;53.80;101146.63;5114913;28;20112;-71
2022/06/30 09:17:08;;;;;;;10.82;3.47;;;25.30;99.90;;;25.72;54.53;101142.41;5116026;28;20452;-71
2022/06/30 09:19:41;;;;;;;7.47;3.60;;;25.40;99.90;;;25.77;53.61;101145.69;5116020;28;20536;-69
2022/06/30 09:22:14;;;;;;;5.00;3.15;;;25.40;99.90;;;25.94;54.29;101142.75;5116678;28;20118;-70
2022/06/30 09:24:43;;;;;;;7.75;3.95;;;25.50;99.90;;;26.14;54.48;101155.97;5116004;28;20047;-69
2022/06/30 09:27:19;;;;;;;6.60;3.85;;;25.70;99.90;;;26.14;53.67;101160.50;5116208;28;20150;-69
2022/06/30 09:29:51;;;;;;;7.88;4.38;;;25.80;99.90;;;26.28;53.94;101163.22;5116194;28;20446;-69
2022/06/30 09:32:52;;;;;;;6.47;3.40;;;25.90;99.90;;;26.42;53.23;101163.19;5115580;28;20077;-70
2022/06/30 09:35:23;;;;;;;8.02;4.00;;;26.10;99.90;;;26.52;52.72;101172.44;5115999;28;20446;-69
2022/06/30 09:38:00;;;;;;;;;;;26.20;99.90;;;26.58;51.92;101164.78;5116240;28;20460;-69
2022/06/30 09:40:31;;;;;;;6.60;3.47;;;26.30;99.90;;;26.66;52.56;101157.03;5115748;28;20358;-69
2022/06/30 09:43:02;;;;;;;6.85;4.10;;;26.30;99.90;;;26.75;52.14;101152.88;5116072;28;20073;-69
2022/06/30 09:45:38;;;;;;;;;;;26.40;99.90;;;26.76;52.12;101166.34;5116553;28;20146;-69
2022/06/30 09:48:09;;;;;;;4.70;3.03;;;26.50;99.90;;;26.34;51.21;101122.13;5115764;28;19924;-69
2022/06/30 09:50:38;;;;;;;7.05;3.70;;;26.40;99.90;;;26.49;52.10;101181.69;5097516;28;20112;-69
2022/06/30 09:53:13;;;;;;;7.57;3.72;;;26.20;99.90;;;26.51;52.38;101181.59;5115688;28;20142;-69
2022/06/30 09:55:46;;;;;;;7.07;3.45;;;26.20;99.90;;;26.49;52.85;101180.81;5115474;28;20050;-69
2022/06/30 09:58:18;;;;;;;7.75;3.60;;;26.20;99.90;;;26.52;51.80;101186.91;5115622;28;20416;-70
2022/06/30 10:00:49;;;;;;;7.45;3.85;;;26.20;99.90;;;26.46;51.85;101170.16;5115144;28;20472;-69
2022/06/30 10:03:20;;;;;;;9.00;3.72;;;26.20;99.90;;;26.53;52.21;101177.81;5097148;28;20086;-70
2022/06/30 10:05:51;;;;;;;6.85;3.42;;;26.20;99.90;;;26.53;53.06;101175.09;5115111;28;20048;-69
2022/06/30 10:08:25;;;;;;;7.30;3.88;;;26.20;99.90;;;26.53;51.79;101177.81;5115099;28;20433;-69
2022/06/30 10:10:55;;;;;;;4.70;3.17;;;26.10;99.90;;;26.51;52.02;101178.88;5115346;28;20082;-69
2022/06/30 10:13:25;;;;;;;8.07;3.45;;;26.10;99.90;;;26.54;51.76;101192.22;5115282;28;20044;-70
2022/06/30 10:15:56;;;;;;;9.10;4.00;;;26.10;99.90;;;26.43;52.44;101192.94;5115232;28;20043;-71
2022/06/30 10:18:29;;;;;;;6.40;3.20;;;26.00;99.90;;;26.53;52.73;101188.66;5115161;28;20465;-70
2022/06/30 10:20:58;;;;;;;4.00;3.33;;;26.10;99.90;;;26.23;52.90;101185.19;5114779;28;20051;-70
2022/06/30 10:23:27;;;;;;;11.57;3.22;;;26.00;99.90;;;26.40;51.95;101200.41;5114723;28;20128;-60
2022/06/30 10:25:55;;;;;;;9.15;3.13;;;26.00;99.90;;;26.48;51.67;101192.66;5113433;28;20051;-60
2022/06/30 10:28:28;;;;;;;8.23;3.33;;;26.10;99.90;;;26.60;52.19;101199.97;5114566;28;20118;-64
2022/06/30 10:31:03;;;;;;;7.43;3.20;;;26.20;99.90;;;26.68;52.39;101192.19;5115273;28;20047;-64
2022/06/30 10:33:43;;;;;;;3.90;2.97;;;26.30;99.90;;;26.62;52.45;101195.31;5114600;28;20430;-66
2022/06/30 10:36:21;;;;;;;3.50;2.58;;;26.30;99.90;;;26.60;51.96;101202.69;5114844;28;20044;-63